Alleghenyville, Pennsylvania
Current Conditions -  °F | °C
As of 7:54 PM on Tuesday 21 Oct 2014 (Local Time) from KRDG Reporting Station
Clear Clear  
Wind Chill: 58°   Ceiling: Unl
Heat Index: 58°   Visibility: 10mi
Dew Point: 48°   Wind: 5mph
Humidity: 70%   Direction: 10°N
Pressure: 29.86"   Gusts: NA
Location:  40.2411°N, 75.9752°W
Report Text: KRDG 212354Z AUTO 01004KT 10SM CLR 14/09 A2986 RMK AO2 SLP117 T01440089 10189 20139 51017
Loading
Personal Weather Stations






























Interactive Weather Map
Tropical Storm Tracking
New forecast layout! Learn more

10-Day Weather Forecast

Advertisements
Track Severe Weather on mobile